Time;durP1;ratioP1;P1;durP2;ratioP2;P2;SDS_P1;SDS_P2;PMS_P1;PMS_P2;Temp;Humidity;BMP_temperature;BMP_pressure;BME280_temperature;BME280_humidity;BME280_pressure;Samples;Min_cycle;Max_cycle;Signal;HPM_P1;HPM_P2
2023/01/15 00:00:51;;;;;;;;;;;-0.30;99.90;;;;;;5087375;28;20183;-77
2023/01/15 00:03:17;;;;;;;;;;;0.50;99.90;;;;;;5105847;28;19908;-76
2023/01/15 00:05:43;;;;;;;;;;;0.50;99.90;;;;;;5105323;28;20219;-75
2023/01/15 00:08:08;;;;;;;;;;;0.50;99.90;;;;;;5105613;28;20613;-76
2023/01/15 00:10:34;;;;;;;;;;;0.50;99.90;;;;;;5102806;28;19918;-76
2023/01/15 00:13:00;;;;;;;;;;;0.40;99.90;;;;;;5085027;28;19923;-76
2023/01/15 00:15:26;;;;;;;;;;;0.40;99.90;;;;;;5103512;28;20255;-76
2023/01/15 00:17:51;;;;;;;;;;;0.40;99.90;;;;;;5103231;28;19980;-76
2023/01/15 00:20:17;;;;;;;;;;;0.40;99.90;;;;;;5104085;28;19908;-76
2023/01/15 00:22:42;;;;;;;;;;;0.40;99.90;;;;;;5103998;28;19907;-76
2023/01/15 00:27:53;;;;;;;;;;;0.40;99.90;;;;;;5104028;28;19922;-76
2023/01/15 00:30:18;;;;;;;;;;;0.40;99.90;;;;;;5106200;28;20614;-76
2023/01/15 00:32:44;;;;;;;;;;;0.30;99.90;;;;;;5104074;28;19916;-77
2023/01/15 00:35:13;;;;;;;;;;;0.40;99.90;;;;;;5105934;28;19933;-76
2023/01/15 00:37:39;;;;;;;;;;;0.40;99.90;;;;;;5107852;28;19914;-77
2023/01/15 00:40:05;;;;;;;;;;;0.40;99.90;;;;;;5104245;28;19991;-78
2023/01/15 00:42:30;;;;;;;;;;;0.30;99.90;;;;;;5106347;28;19908;-77
2023/01/15 00:44:56;;;;;;;;;;;0.30;99.90;;;;;;5105175;28;19992;-77
2023/01/15 00:47:22;;;;;;;;;;;0.30;99.90;;;;;;5107186;28;19911;-76
2023/01/15 00:49:49;;;;;;;;;;;0.40;99.90;;;;;;5086315;28;20640;-77
2023/01/15 00:52:14;;;;;;;;;;;0.30;99.90;;;;;;5103236;28;19927;-77
2023/01/15 00:54:40;;;;;;;;;;;0.30;99.90;;;;;;5103293;28;20346;-77
2023/01/15 00:57:06;;;;;;;;;;;0.30;99.90;;;;;;5105621;28;19917;-78
2023/01/15 00:59:31;;;;;;;;;;;0.30;99.90;;;;;;5107673;28;19919;-76
2023/01/15 01:01:57;;;;;;;;;;;0.30;99.90;;;;;;5104638;28;19915;-76
2023/01/15 01:04:22;;;;;;;;;;;0.40;99.90;;;;;;5105074;28;19908;-76
2023/01/15 01:06:48;;;;;;;;;;;0.30;99.90;;;;;;5102575;28;20128;-77
2023/01/15 01:09:14;;;;;;;;;;;0.40;99.90;;;;;;5085405;28;20180;-76
2023/01/15 01:11:40;;;;;;;;;;;0.40;99.90;;;;;;5085784;28;20019;-77
2023/01/15 01:14:06;;;;;;;;;;;1.40;99.90;;;;;;5103977;28;19984;-78
2023/01/15 01:16:36;;;;;;;;;;;0.50;99.90;;;;;;5104248;28;19907;-77
2023/01/15 01:19:04;;;;;;;;;;;0.40;99.90;;;;;;5105486;28;20342;-76
2023/01/15 01:21:29;;;;;;;;;;;0.40;99.90;;;;;;5110263;28;19990;-77
2023/01/15 01:23:57;;;;;;;;;;;0.30;99.90;;;;;;5110278;28;19957;-77
2023/01/15 01:26:23;;;;;;;;;;;0.30;99.90;;;;;;5109349;28;19992;-77
2023/01/15 01:28:49;;;;;;;;;;;0.40;99.90;;;;;;5103307;28;19927;-76
2023/01/15 01:31:15;;;;;;;;;;;0.30;99.90;;;;;;5108680;28;19916;-77
2023/01/15 01:33:41;;;;;;;;;;;0.30;99.90;;;;;;5104826;28;19922;-77
2023/01/15 01:36:06;;;;;;;;;;;0.30;99.90;;;;;;5109106;28;19916;-78
2023/01/15 01:38:32;;;;;;;;;;;2.40;99.90;;;;;;5109924;28;20099;-77
2023/01/15 01:40:58;;;;;;;;;;;0.30;99.90;;;;;;5111347;28;20321;-77
2023/01/15 01:43:28;;;;;;;;;;;0.40;99.90;;;;;;5091871;28;19907;-77
2023/01/15 01:45:53;;;;;;;;;;;0.30;99.90;;;;;;5093788;28;20011;-77
2023/01/15 01:48:21;;;;;;;;;;;0.40;99.90;;;;;;5103385;28;20208;-77
2023/01/15 01:50:48;;;;;;;;;;;0.40;99.90;;;;;;5102714;28;19927;-77
2023/01/15 01:53:16;;;;;;;;;;;0.30;99.90;;;;;;5085549;28;19923;-78
2023/01/15 01:55:42;;;;;;;;;;;0.20;99.90;;;;;;5102189;28;19915;-77
2023/01/15 01:58:10;;;;;;;;;;;0.00;99.90;;;;;;5102604;28;19907;-77
2023/01/15 02:00:37;;;;;;;;;;;0.10;99.90;;;;;;5103412;28;19943;-76
2023/01/15 02:03:05;;;;;;;;;;;0.10;99.90;;;;;;5101550;28;19912;-77
2023/01/15 02:05:32;;;;;;;;;;;0.10;99.90;;;;;;5101315;28;20112;-77
2023/01/15 02:07:58;;;;;;;;;;;0.00;99.90;;;;;;5083544;28;19935;-77
2023/01/15 02:10:24;;;;;;;;;;;0.00;99.90;;;;;;5101712;28;19907;-76
2023/01/15 02:13:00;;;;;;;;;;;1.10;99.90;;;;;;5102182;28;19941;-76
2023/01/15 02:15:42;;;;;;;;;;;0.00;99.90;;;;;;5102056;28;20077;-77
2023/01/15 02:18:28;;;;;;;;;;;1.10;99.90;;;;;;5102803;28;20310;-77
2023/01/15 02:20:57;;;;;;;;;;;3.20;99.90;;;;;;5102368;28;19914;-77
2023/01/15 02:23:38;;;;;;;;;;;-0.10;99.90;;;;;;5101329;28;20388;-77
2023/01/15 02:26:22;;;;;;;;;;;-0.90;99.90;;;;;;5102223;28;19908;-76
2023/01/15 02:28:49;;;;;;;;;;;-0.10;99.90;;;;;;5102419;28;19920;-75
2023/01/15 02:31:35;;;;;;;;;;;-0.10;99.90;;;;;;5109263;28;19980;-76
2023/01/15 02:34:13;;;;;;;;;;;-0.10;99.90;;;;;;5112766;28;19908;-77
2023/01/15 02:36:40;;;;;;;;;;;-0.10;99.90;;;;;;5116935;28;20322;-77
2023/01/15 02:39:08;;;;;;;;;;;0.00;99.90;;;;;;5116763;28;19908;-77
2023/01/15 02:41:40;;;;;;;;;;;-0.10;99.90;;;;;;5110005;28;20034;-79
2023/01/15 02:44:06;;;;;;;;;;;-0.10;99.90;;;;;;5110854;28;19964;-77
2023/01/15 02:46:34;;;;;;;;;;;-0.10;99.90;;;;;;5089966;28;19919;-77
2023/01/15 02:49:00;;;;;;;;;;;-0.10;99.90;;;;;;5109477;28;19912;-77
2023/01/15 02:51:30;;;;;;;;;;;-0.10;99.90;;;;;;5110308;28;20373;-76
2023/01/15 02:53:58;;;;;;;;;;;-0.10;99.90;;;;;;5109053;27;20002;-76
2023/01/15 02:56:26;;;;;;;;;;;-0.10;99.90;;;;;;5108910;27;19908;-77
2023/01/15 02:58:54;;;;;;;;;;;-0.20;99.90;;;;;;5109994;28;19995;-77
2023/01/15 03:01:22;;;;;;;;;;;-0.10;99.90;;;;;;5110846;28;19919;-76
2023/01/15 03:04:01;;;;;;;;;;;0.00;99.90;;;;;;5089922;28;19915;-77
2023/01/15 03:06:56;;;;;;;;;;;0.00;99.90;;;;;;5108791;28;19919;-76
2023/01/15 03:09:21;;;;;;;;;;;-0.10;99.90;;;;;;5004696;28;19992;-77
2023/01/15 03:12:13;;;;;;;;;;;-0.10;99.90;;;;;;5005165;28;20087;-77
2023/01/15 03:14:38;;;;;;;;;;;-0.10;99.90;;;;;;5017008;28;19945;-76
2023/01/15 03:17:17;;;;;;;;;;;-0.10;99.90;;;;;;5003230;28;20383;-77
2023/01/15 03:20:09;;;;;;;;;;;-0.10;99.90;;;;;;5025164;28;19978;-76
2023/01/15 03:22:37;;;;;;;;;;;-0.10;99.90;;;;;;5020673;28;19913;-76
2023/01/15 03:25:04;;;;;;;;;;;0.00;99.90;;;;;;5023539;28;19909;-77
2023/01/15 03:27:30;;;;;;;;;;;0.00;99.90;;;;;;5025518;28;20410;-77
2023/01/15 03:30:07;;;;;;;;;;;0.00;99.90;;;;;;5024368;28;19921;-76
2023/01/15 03:32:33;;;;;;;;;;;0.10;99.90;;;;;;5026045;28;19918;-76
2023/01/15 03:34:59;;;;;;;;;;;0.00;99.90;;;;;;5007855;28;19994;-76
2023/01/15 03:37:26;;;;;;;;;;;-0.30;99.90;;;;;;5024448;28;20004;-78
2023/01/15 03:39:52;;;;;;;;;;;0.00;99.90;;;;;;5023821;28;19936;-77
2023/01/15 03:42:32;;;;;;;;;;;-0.10;99.90;;;;;;5025389;28;20039;-76
2023/01/15 03:44:58;;;;;;;;;;;0.00;99.90;;;;;;5033408;28;19912;-76
2023/01/15 03:47:26;;;;;;;;;;;0.00;99.90;;;;;;5083543;28;20135;-76
2023/01/15 03:49:54;;;;;;;;;;;-1.80;99.90;;;;;;5086232;28;20437;-77
2023/01/15 03:52:25;;;;;;;;;;;0.00;99.90;;;;;;5089377;28;19916;-76
2023/01/15 03:54:54;;;;;;;;;;;-0.10;99.90;;;;;;5090702;28;20010;-76
2023/01/15 03:57:28;;;;;;;;;;;-0.30;99.90;;;;;;5091035;28;19919;-77
2023/01/15 03:59:55;;;;;;;;;;;-0.20;99.90;;;;;;5085061;28;19908;-76
2023/01/15 04:02:22;;;;;;;;;;;-0.20;99.90;;;;;;5085157;28;19916;-76
2023/01/15 04:04:48;;;;;;;;;;;-0.20;99.90;;;;;;5085517;28;19981;-76
2023/01/15 04:07:14;;;;;;;;;;;-0.30;99.90;;;;;;5084859;28;20613;-77
2023/01/15 04:09:40;;;;;;;;;;;-0.30;99.90;;;;;;5088907;28;19916;-76
2023/01/15 04:12:06;;;;;;;;;;;-0.30;99.90;;;;;;5092432;28;19961;-76
2023/01/15 04:14:32;;;;;;;;;;;-0.60;99.90;;;;;;5089699;28;19999;-77
2023/01/15 04:16:58;;;;;;;;;;;-0.40;99.90;;;;;;5086232;28;19959;-76
2023/01/15 04:19:23;;;;;;;;;;;-0.50;99.90;;;;;;5083658;28;19965;-76
2023/01/15 04:21:49;;;;;;;;;;;-0.50;99.90;;;;;;5065499;28;19966;-76
2023/01/15 04:24:14;;;;;;;;;;;-0.50;99.90;;;;;;5084110;28;19908;-77
2023/01/15 04:26:40;;;;;;;;;;;-0.50;99.90;;;;;;5083744;28;19966;-77
2023/01/15 04:29:06;;;;;;;;;;;-0.50;99.90;;;;;;5100052;28;19993;-75
2023/01/15 04:31:33;;;;;;;;;;;-0.50;99.90;;;;;;5104542;28;20384;-76
2023/01/15 04:33:59;;;;;;;;;;;-0.50;99.90;;;;;;5103589;28;20172;-76
2023/01/15 04:36:25;;;;;;;;;;;-0.50;99.90;;;;;;5104636;28;20133;-77
2023/01/15 04:38:50;;;;;;;;;;;-0.60;99.90;;;;;;5104286;28;19907;-77
2023/01/15 04:44:08;;;;;;;;;;;-0.60;99.90;;;;;;5104012;28;19988;-76
2023/01/15 04:46:37;;;;;;;;;;;-0.60;99.90;;;;;;5085765;28;19918;-76
2023/01/15 04:49:05;;;;;;;;;;;-0.60;99.90;;;;;;5104895;28;19919;-76
2023/01/15 04:51:30;;;;;;;;;;;-0.60;99.90;;;;;;5103412;28;19984;-76
2023/01/15 04:53:56;;;;;;;;;;;-0.60;99.90;;;;;;5104174;28;19941;-76
2023/01/15 04:56:22;;;;;;;;;;;-0.60;99.90;;;;;;5085316;28;19908;-76
2023/01/15 04:58:49;;;;;;;;;;;-0.50;99.90;;;;;;5102659;28;19908;-77
2023/01/15 05:01:15;;;;;;;;;;;-0.50;99.90;;;;;;5104196;28;20313;-76
2023/01/15 05:03:42;;;;;;;;;;;-0.50;99.90;;;;;;5103370;28;19909;-77
2023/01/15 05:06:08;;;;;;;;;;;-0.50;99.90;;;;;;5103364;28;20111;-76
2023/01/15 05:08:34;;;;;;;;;;;-0.40;99.90;;;;;;5103796;28;19908;-76
2023/01/15 05:11:03;;;;;;;;;;;-0.30;99.90;;;;;;5105112;28;20426;-75
2023/01/15 05:13:32;;;;;;;;;;;-0.30;99.90;;;;;;5102916;28;19916;-76
2023/01/15 05:16:27;;;;;;;;;;;-0.10;99.90;;;;;;5103037;28;20005;-76
2023/01/15 05:18:54;;;;;;;;;;;-0.10;99.90;;;;;;4999884;28;19940;-76
2023/01/15 05:21:20;;;;;;;;;;;0.10;99.90;;;;;;5000264;28;20296;-78
2023/01/15 05:23:47;;;;;;;;;;;0.10;99.90;;;;;;4999074;28;19913;-76
2023/01/15 05:26:12;;;;;;;;;;;0.10;99.90;;;;;;4999365;28;20005;-76
2023/01/15 05:28:38;;;;;;;;;;;0.20;99.90;;;;;;4999537;28;20004;-76
2023/01/15 05:31:22;;;;;;;;;;;0.20;99.90;;;;;;4999479;28;19913;-76
2023/01/15 05:33:47;;;;;;;;;;;1.10;99.90;;;;;;4983967;28;19917;-77
2023/01/15 05:36:14;;;;;;;;;;;0.30;99.90;;;;;;4983312;28;19910;-76
2023/01/15 05:38:40;;;;;;;;;;;0.30;99.90;;;;;;4999991;28;19913;-76
2023/01/15 05:41:47;;;;;;;;;;;0.20;99.90;;;;;;5000086;28;20166;-76
2023/01/15 05:43:53;;;;;;;;;;;0.30;99.90;;;;;;5002153;28;20526;-76
2023/01/15 05:46:19;;;;;;;;;;;0.30;99.90;;;;;;4990879;28;20370;-75
2023/01/15 05:48:47;;;;;;;;;;;0.20;99.90;;;;;;5006691;28;19917;-76
2023/01/15 05:51:12;;;;;;;;;;;-0.10;99.90;;;;;;4990212;28;20344;-76
2023/01/15 05:53:39;;;;;;;;;;;-0.10;99.90;;;;;;5006704;28;20446;-76
2023/01/15 05:56:05;;;;;;;;;;;-0.10;99.90;;;;;;5086212;28;19908;-78
2023/01/15 05:58:31;;;;;;;;;;;-0.10;99.90;;;;;;5105914;28;19914;-76
2023/01/15 06:00:57;;;;;;;;;;;-0.10;99.90;;;;;;5103936;28;19930;-77
2023/01/15 06:03:23;;;;;;;;;;;-0.30;99.90;;;;;;5109716;28;20274;-76
2023/01/15 06:05:50;;;;;;;;;;;-0.30;99.90;;;;;;5108886;28;19907;-77
2023/01/15 06:08:15;;;;;;;;;;;0.20;99.90;;;;;;5108366;28;19919;-76
2023/01/15 06:10:43;;;;;;;;;;;-0.40;99.90;;;;;;5090304;28;19908;-76
2023/01/15 06:13:08;;;;;;;;;;;-0.40;99.90;;;;;;5104605;28;19922;-76
2023/01/15 06:15:34;;;;;;;;;;;-0.40;99.90;;;;;;5105340;28;20304;-76
2023/01/15 06:18:00;;;;;;;;;;;-0.30;99.90;;;;;;5106531;28;20201;-76
2023/01/15 06:20:27;;;;;;;;;;;-0.40;99.90;;;;;;5105540;28;19912;-76
2023/01/15 06:22:52;;;;;;;;;;;-0.40;99.90;;;;;;5105219;28;19919;-76
2023/01/15 06:25:18;;;;;;;;;;;-0.30;99.90;;;;;;5088658;28;19907;-78
2023/01/15 06:27:43;;;;;;;;;;;-1.10;99.90;;;;;;5101068;28;20448;-76
2023/01/15 06:30:10;;;;;;;;;;;-0.30;99.90;;;;;;5088445;28;19909;-77
2023/01/15 06:32:35;;;;;;;;;;;-0.30;99.90;;;;;;5087747;28;19931;-76
2023/01/15 06:35:01;;;;;;;;;;;-0.30;99.90;;;;;;5083292;28;19908;-76
2023/01/15 06:37:27;;;;;;;;;;;-0.30;99.90;;;;;;5086135;28;19908;-76
2023/01/15 06:39:53;;;;;;;;;;;-0.20;99.90;;;;;;5086906;28;19914;-77
2023/01/15 06:47:55;;;;;;;;;;;-0.20;99.90;;;;;;5082050;28;19958;-76
2023/01/15 06:50:22;;;;;;;;;;;-0.20;99.90;;;;;;5063676;28;19908;-77
2023/01/15 06:52:48;;;;;;;;;;;-0.20;99.90;;;;;;5065555;28;20158;-76
2023/01/15 06:55:17;;;;;;;;;;;-0.10;99.90;;;;;;5065393;28;19908;-77
2023/01/15 06:57:43;;;;;;;;;;;-0.10;99.90;;;;;;5082315;28;19938;-78
2023/01/15 07:00:09;;;;;;;;;;;-0.10;99.90;;;;;;5066229;28;19919;-76
2023/01/15 07:02:35;;;;;;;;;;;-0.10;99.90;;;;;;5082350;28;19918;-76
2023/01/15 07:05:00;;;;;;;;;;;-0.10;99.90;;;;;;5083017;28;20202;-76
2023/01/15 07:07:27;;;;;;;;;;;0.00;99.90;;;;;;5082596;28;19919;-76
2023/01/15 07:09:52;;;;;;;;;;;0.10;99.90;;;;;;5063940;28;19912;-76
2023/01/15 07:12:18;;;;;;;;;;;0.00;99.90;;;;;;5080747;28;19969;-77
2023/01/15 07:14:44;;;;;;;;;;;0.10;99.90;;;;;;5080799;28;19923;-76
2023/01/15 07:17:10;;;;;;;;;;;0.10;99.90;;;;;;5081093;28;20124;-76
2023/01/15 07:19:35;;;;;;;;;;;0.10;99.90;;;;;;5081285;28;20451;-76
2023/01/15 07:22:01;;;;;;;;;;;0.10;99.90;;;;;;5083572;28;19908;-77
2023/01/15 07:24:27;;;;;;;;;;;0.10;99.90;;;;;;5084143;28;19908;-76
2023/01/15 07:26:52;;;;;;;;;;;0.20;99.90;;;;;;5084722;28;19908;-77
2023/01/15 07:29:18;;;;;;;;;;;0.20;99.90;;;;;;5103050;28;20011;-77
2023/01/15 07:31:44;;;;;;;;;;;0.30;99.90;;;;;;5087730;28;20166;-76
2023/01/15 07:34:09;;;;;;;;;;;0.20;99.90;;;;;;5105224;28;20135;-76
2023/01/15 07:36:35;;;;;;;;;;;-1.30;99.90;;;;;;5104633;28;19916;-76
2023/01/15 07:39:05;;;;;;;;;;;0.40;99.90;;;;;;5086367;28;19908;-77
2023/01/15 07:50:04;;;;;;;;;;;0.50;99.90;;;;;;5039974;28;19909;-77
2023/01/15 07:52:29;;;;;;;;;;;0.40;99.90;;;;;;5039576;28;19956;-76
2023/01/15 07:54:55;;;;;;;;;;;0.30;99.90;;;;;;5039801;28;19944;-76
2023/01/15 07:57:21;;;;;;;;;;;0.20;99.90;;;;;;5023612;28;19909;-76
2023/01/15 07:59:47;;;;;;;;;;;0.90;99.90;;;;;;5023644;28;20451;-76
2023/01/15 08:02:12;;;;;;;;;;;0.40;99.90;;;;;;5041324;28;20152;-76
2023/01/15 08:04:40;;;;;;;;;;;0.40;99.90;;;;;;5042025;28;19909;-77
2023/01/15 08:07:07;;;;;;;;;;;0.40;99.90;;;;;;5042415;28;19909;-76
2023/01/15 08:09:34;;;;;;;;;;;0.40;99.90;;;;;;5024242;28;19909;-77
2023/01/15 08:17:29;;;;;;;;;;;0.20;99.90;;;;;;5039144;28;19944;-76
2023/01/15 08:19:54;;;;;;;;;;;0.20;99.90;;;;;;5046000;28;20560;-76
2023/01/15 08:22:20;;;;;;;;;;;0.30;99.90;;;;;;5084976;28;19908;-76
2023/01/15 08:24:47;;;;;;;;;;;0.30;99.90;;;;;;5103963;28;19911;-76
2023/01/15 08:27:13;;;;;;;;;;;0.40;99.90;;;;;;5104653;28;20426;-77
2023/01/15 08:29:39;;;;;;;;;;;0.40;99.90;;;;;;5103310;28;19920;-76
2023/01/15 08:32:06;;;;;;;;;;;0.40;99.90;;;;;;5103360;28;20015;-76
2023/01/15 08:34:32;;;;;;;;;;;0.60;99.90;;;;;;5086114;28;19908;-75
2023/01/15 08:36:58;;;;;;;;;;;0.40;99.90;;;;;;5084716;28;20342;-76
2023/01/15 08:39:25;;;;;;;;;;;0.30;99.90;;;;;;5102964;28;19965;-76
2023/01/15 08:41:51;;;;;;;;;;;0.30;99.90;;;;;;5104340;28;19918;-76
2023/01/15 08:44:16;;;;;;;;;;;0.40;99.90;;;;;;5103428;28;19990;-76
2023/01/15 08:46:42;;;;;;;;;;;0.50;99.90;;;;;;5103264;28;19907;-76
2023/01/15 08:49:10;;;;;;;;;;;0.50;99.90;;;;;;5103176;28;19911;-76
2023/01/15 08:51:36;;;;;;;;;;;0.60;99.90;;;;;;5104222;28;19969;-77
2023/01/15 08:54:02;;;;;;;;;;;0.70;99.90;;;;;;5103903;28;19911;-76
2023/01/15 08:56:27;;;;;;;;;;;0.90;99.90;;;;;;5104099;28;19939;-75
2023/01/15 08:58:53;;;;;;;;;;;0.80;99.90;;;;;;5086755;28;19924;-77
2023/01/15 09:01:18;;;;;;;;;;;1.00;99.90;;;;;;5105100;28;19914;-76
2023/01/15 09:03:44;;;;;;;;;;;1.10;99.90;;;;;;5105818;28;19914;-76
2023/01/15 09:06:10;;;;;;;;;;;1.20;99.90;;;;;;5107691;28;20406;-76
2023/01/15 09:08:36;;;;;;;;;;;1.40;99.90;;;;;;5092948;28;19916;-76
2023/01/15 09:11:04;;;;;;;;;;;1.40;99.90;;;;;;5112135;28;19907;-76
2023/01/15 09:13:30;;;;;;;;;;;1.40;99.90;;;;;;5092538;28;19927;-76
2023/01/15 09:15:59;;;;;;;;;;;1.50;99.90;;;;;;5091658;28;19908;-77
2023/01/15 09:18:25;;;;;;;;;;;1.50;99.90;;;;;;5109749;28;19907;-77
2023/01/15 09:20:50;;;;;;;;;;;1.50;99.90;;;;;;5106062;28;19918;-77
2023/01/15 09:23:16;;;;;;;;;;;1.50;99.90;;;;;;5104020;28;20220;-77
2023/01/15 09:25:52;;;;;;;;;;;1.60;99.90;;;;;;5102888;28;20402;-76
2023/01/15 09:28:17;;;;;;;;;;;1.70;99.90;;;;;;5104942;28;19994;-77
2023/01/15 09:30:43;;;;;;;;;;;1.60;99.90;;;;;;5109357;28;20003;-76
2023/01/15 09:33:10;;;;;;;;;;;1.60;99.90;;;;;;5109698;28;19920;-77
2023/01/15 09:35:35;;;;;;;;;;;1.60;99.90;;;;;;5108412;28;19916;-77
2023/01/15 09:38:01;;;;;;;;;;;1.60;99.90;;;;;;5087008;28;20374;-77
2023/01/15 09:40:33;;;;;;;;;;;1.60;99.90;;;;;;5103910;28;19907;-76
2023/01/15 09:43:08;;;;;;;;;;;1.80;99.90;;;;;;5106308;28;19904;-78
2023/01/15 09:45:43;;;;;;;;;;;2.00;99.90;;;;;;5110099;28;19934;-77
2023/01/15 09:48:23;;;;;;;;;;;2.30;99.90;;;;;;5105799;28;19912;-77
2023/01/15 09:50:55;;;;;;;;;;;2.40;99.90;;;;;;5101686;28;19957;-76
2023/01/15 09:53:33;;;;;;;;;;;2.60;99.90;;;;;;5101855;28;19923;-78
2023/01/15 09:56:00;;;;;;;;;;;2.70;99.90;;;;;;5084787;28;19916;-76
2023/01/15 09:58:36;;;;;;;;;;;2.90;99.90;;;;;;5086612;28;19925;-76
2023/01/15 10:01:02;;;;;;;;;;;3.10;99.90;;;;;;5104201;28;19903;-76
2023/01/15 10:03:40;;;;;;;;;;;3.00;99.90;;;;;;5083279;28;19965;-75
2023/01/15 10:06:08;;;;;;;;;;;3.20;99.90;;;;;;5087092;28;19908;-76
2023/01/15 10:08:43;;;;;;;;;;;3.30;99.90;;;;;;5105102;28;19907;-76
2023/01/15 10:11:21;;;;;;;;;;;3.50;99.90;;;;;;5084726;28;19912;-77
2023/01/15 10:13:48;;;;;;;;;;;3.60;99.90;;;;;;5100941;28;20011;-77
2023/01/15 10:16:21;;;;;;;;;;;3.80;99.90;;;;;;5099648;28;19915;-76
2023/01/15 10:18:47;;;;;;;;;;;3.80;99.90;;;;;;5099912;28;20006;-77
2023/01/15 10:21:31;;;;;;;;;;;3.90;99.90;;;;;;5100494;28;20003;-76
2023/01/15 10:24:06;;;;;;;;;;;3.90;99.90;;;;;;5107479;28;19912;-77
2023/01/15 10:26:41;;;;;;;;;;;4.10;99.90;;;;;;5110848;28;19922;-76
2023/01/15 10:29:14;;;;;;;;;;;7.20;99.90;;;;;;5087253;28;19920;-76
2023/01/15 10:31:56;;;;;;;;;;;4.10;99.90;;;;;;5089305;28;19904;-76
2023/01/15 10:34:29;;;;;;;;;;;4.10;99.90;;;;;;5106242;28;19908;-76
2023/01/15 10:37:04;;;;;;;;;;;4.00;99.90;;;;;;5102190;28;19911;-76
2023/01/15 10:39:50;;;;;;;;;;;3.80;99.90;;;;;;5084040;28;20434;-77
2023/01/15 10:42:34;;;;;;;;;;;3.80;99.90;;;;;;4999752;28;19905;-76
2023/01/15 10:45:25;;;;;;;;;;;3.70;99.90;;;;;;4988565;28;19910;-76
2023/01/15 10:48:17;;;;;;;;;;;3.80;99.90;;;;;;5001276;28;19906;-76
2023/01/15 10:50:42;;;;;;;;;;;4.00;99.90;;;;;;5003602;28;19912;-76
2023/01/15 10:53:29;;;;;;;;;;;4.30;99.90;;;;;;5007891;28;19984;-76
2023/01/15 10:56:07;;;;;;;;;;;4.50;99.90;;;;;;5008508;28;20585;-76
2023/01/15 10:58:37;;;;;;;;;;;4.60;99.90;;;;;;4993785;28;20079;-76
2023/01/15 11:01:04;;;;;;;;;;;4.70;99.90;;;;;;5009360;28;19917;-77
2023/01/15 11:03:37;;;;;;;;;;;4.40;99.90;;;;;;5008797;28;19916;-77
2023/01/15 11:06:07;;;;;;;;;;;4.80;99.90;;;;;;5010174;28;19995;-77
2023/01/15 11:08:33;;;;;;;;;;;4.90;99.90;;;;;;5006514;28;19913;-78
2023/01/15 11:11:20;;;;;;;;;;;4.90;99.90;;;;;;4986953;28;20534;-76
2023/01/15 11:19:36;;;;;;;;;;;5.10;99.90;;;;;;5050649;28;19961;-77
2023/01/15 11:22:10;;;;;;;;;;;5.10;99.90;;;;;;5090644;28;19960;-77
2023/01/15 11:24:37;;;;;;;;;;;5.30;99.90;;;;;;5107496;28;20007;-76
2023/01/15 11:27:04;;;;;;;;;;;5.40;99.90;;;;;;5104910;28;19915;-76
2023/01/15 11:29:35;;;;;;;;;;;5.40;99.90;;;;;;5106441;28;19924;-76
2023/01/15 11:32:01;;;;;;;;;;;7.20;99.90;;;;;;5105844;28;19916;-76
2023/01/15 11:34:27;;;;;;;;;;;5.90;99.90;;;;;;5105938;28;20007;-76
2023/01/15 11:37:06;;;;;;;;;;;5.80;99.90;;;;;;5106556;28;20022;-77
2023/01/15 11:39:32;;;;;;;;;;;5.90;99.90;;;;;;5090654;28;19911;-77
2023/01/15 11:53:12;;;;;;;;;;;6.70;99.90;;;;;;5107503;28;20425;-76
2023/01/15 11:55:38;;;;;;;;;;;5.90;99.90;;;;;;5111261;28;20099;-76
2023/01/15 11:58:07;;;;;;;;;;;6.70;99.90;;;;;;5114123;28;20579;-75
2023/01/15 12:00:34;;;;;;;;;;;7.00;99.90;;;;;;5109601;28;19907;-76
2023/01/15 12:03:03;;;;;;;;;;;4.90;99.90;;;;;;5110811;28;19971;-76
2023/01/15 12:05:30;;;;;;;;;;;7.20;99.90;;;;;;5107295;28;19954;-76
2023/01/15 12:07:57;;;;;;;;;;;7.40;99.90;;;;;;5107632;28;19918;-78
2023/01/15 12:13:24;;;;;;;;;;;7.70;99.90;;;;;;5108085;28;20011;-76
2023/01/15 12:16:02;;;;;;;;;;;7.90;99.90;;;;;;5092106;28;19915;-77
2023/01/15 12:18:45;;;;;;;;;;;8.10;99.90;;;;;;5109847;28;19943;-77
2023/01/15 12:21:27;;;;;;;;;;;8.00;99.90;;;;;;5111036;28;19904;-77
2023/01/15 12:24:10;;;;;;;;;;;8.10;99.90;;;;;;5111743;28;19991;-77
2023/01/15 12:26:55;;;;;;;;;;;8.20;99.90;;;;;;5097422;28;19915;-76
2023/01/15 12:29:23;;;;;;;;;;;8.50;99.90;;;;;;5114795;28;19920;-77
2023/01/15 12:31:51;;;;;;;;;;;8.60;99.90;;;;;;5114599;28;20017;-78
2023/01/15 12:34:17;;;;;;;;;;;7.30;99.90;;;;;;5095067;28;19922;-77
2023/01/15 12:36:49;;;;;;;;;;;9.60;99.90;;;;;;5088976;28;19916;-76
2023/01/15 12:39:14;;;;;;;;;;;9.20;99.90;;;;;;5109102;28;19904;-76
2023/01/15 12:47:17;;;;;;;;;;;8.90;99.90;;;;;;5104967;28;19914;-75
2023/01/15 12:49:46;;;;;;;;;;;8.20;99.90;;;;;;5086747;28;19908;-76
2023/01/15 12:52:17;;;;;;;;;;;9.00;99.90;;;;;;5104865;28;19920;-76
2023/01/15 12:54:50;;;;;;;;;;;9.20;99.90;;;;;;5105257;28;20592;-76
2023/01/15 12:57:18;;;;;;;;;;;9.20;99.90;;;;;;5105083;28;20478;-79
2023/01/15 12:59:48;;;;;;;;;;;8.00;99.90;;;;;;5105202;28;19904;-77
2023/01/15 13:02:20;;;;;;;;;;;9.40;99.90;;;;;;5105452;28;19957;-76
2023/01/15 13:04:49;;;;;;;;;;;9.50;99.90;;;;;;5087780;28;19903;-76
2023/01/15 13:07:14;;;;;;;;;;;9.50;99.90;;;;;;5106567;28;19942;-76
2023/01/15 13:09:43;;;;;;;;;;;9.50;99.90;;;;;;5090465;28;19908;-76
2023/01/15 13:12:11;;;;;;;;;;;9.30;99.90;;;;;;5089161;28;20472;-77
2023/01/15 13:14:36;;;;;;;;;;;8.80;99.90;;;;;;5111048;28;20116;-76
2023/01/15 13:17:06;;;;;;;;;;;8.90;99.90;;;;;;5113504;28;19909;-76
2023/01/15 13:19:41;;;;;;;;;;;9.10;99.90;;;;;;5092454;28;19904;-76
2023/01/15 13:22:14;;;;;;;;;;;9.10;99.90;;;;;;5092235;28;19914;-77
2023/01/15 13:24:53;;;;;;;;;;;9.10;99.90;;;;;;5107537;28;19904;-77
2023/01/15 13:27:32;;;;;;;;;;;9.10;99.90;;;;;;5106712;28;19908;-77
2023/01/15 13:30:06;;;;;;;;;;;9.10;99.90;;;;;;5105956;28;19954;-77
2023/01/15 13:32:34;;;;;;;;;;;9.40;99.90;;;;;;5104213;28;19988;-76
2023/01/15 13:35:04;;;;;;;;;;;9.50;99.90;;;;;;5105604;28;19971;-76
2023/01/15 13:37:33;;;;;;;;;;;8.90;99.90;;;;;;5104432;28;19911;-76
2023/01/15 13:40:12;;;;;;;;;;;9.60;99.90;;;;;;5104538;28;19908;-76
2023/01/15 13:42:39;;;;;;;;;;;9.70;99.90;;;;;;5105053;28;20789;-76
2023/01/15 13:45:26;;;;;;;;;;;9.90;99.90;;;;;;5103527;28;20442;-77
2023/01/15 13:47:54;;;;;;;;;;;9.80;99.90;;;;;;5086639;28;19934;-76
2023/01/15 13:50:33;;;;;;;;;;;9.70;99.90;;;;;;5104992;28;19919;-77
2023/01/15 13:53:00;;;;;;;;;;;9.50;99.90;;;;;;5103798;28;20566;-77
2023/01/15 13:55:30;;;;;;;;;;;9.50;99.90;;;;;;5102901;28;19915;-75
2023/01/15 13:57:56;;;;;;;;;;;9.60;99.90;;;;;;5084545;28;20019;-76
2023/01/15 14:00:28;;;;;;;;;;;9.60;99.90;;;;;;5103125;28;20006;-76
2023/01/15 14:02:56;;;;;;;;;;;9.60;99.90;;;;;;5103333;28;19998;-76
2023/01/15 14:05:29;;;;;;;;;;;9.60;99.90;;;;;;5102933;28;19908;-77
2023/01/15 14:07:54;;;;;;;;;;;9.70;99.90;;;;;;5102058;28;19994;-77
2023/01/15 14:10:25;;;;;;;;;;;9.80;99.90;;;;;;5084731;28;20502;-77
2023/01/15 14:12:59;;;;;;;;;;;9.90;99.90;;;;;;5102812;28;19977;-76
2023/01/15 14:15:25;;;;;;;;;;;10.00;99.90;;;;;;5102220;28;19908;-77
2023/01/15 14:17:50;;;;;;;;;;;10.10;99.90;;;;;;5101726;28;19965;-77
2023/01/15 14:20:49;;;;;;;;;;;10.20;99.90;;;;;;5102454;28;20028;-77
2023/01/15 14:23:23;;;;;;;;;;;10.30;99.90;;;;;;4998834;28;19909;-76
2023/01/15 14:25:49;;;;;;;;;;;10.40;99.90;;;;;;4999059;28;19941;-77
2023/01/15 14:28:29;;;;;;;;;;;10.20;99.90;;;;;;4999623;28;19918;-76
2023/01/15 14:30:55;;;;;;;;;;;10.20;99.90;;;;;;5000641;28;19910;-78
2023/01/15 14:33:43;;;;;;;;;;;10.20;99.90;;;;;;4999261;28;20563;-80
2023/01/15 14:36:22;;;;;;;;;;;10.10;99.90;;;;;;4999534;28;19910;-77
2023/01/15 14:38:50;;;;;;;;;;;9.90;99.90;;;;;;5001025;28;19918;-77
2023/01/15 14:41:25;;;;;;;;;;;9.90;99.90;;;;;;5001264;28;19952;-76
2023/01/15 14:43:51;;;;;;;;;;;9.70;99.90;;;;;;5000745;28;19909;-78
2023/01/15 14:46:19;;;;;;;;;;;9.60;99.90;;;;;;4984412;28;19917;-77
2023/01/15 14:48:44;;;;;;;;;;;9.50;99.90;;;;;;5002847;28;19909;-77
2023/01/15 14:51:22;;;;;;;;;;;9.30;99.90;;;;;;4986639;28;19917;-76
2023/01/15 14:53:50;;;;;;;;;;;9.00;99.90;;;;;;5002609;28;19956;-77
2023/01/15 14:56:16;;;;;;;;;;;8.80;99.90;;;;;;4986499;28;19905;-77
2023/01/15 14:59:05;;;;;;;;;;;5.30;99.90;;;;;;5037483;28;19916;-76
2023/01/15 15:01:43;;;;;;;;;;;8.30;99.90;;;;;;5024913;28;19916;-77
2023/01/15 15:04:26;;;;;;;;;;;8.20;99.90;;;;;;5028118;28;19909;-77
2023/01/15 15:06:56;;;;;;;;;;;7.90;99.90;;;;;;5032596;28;19936;-76
2023/01/15 15:09:26;;;;;;;;;;;7.70;99.90;;;;;;5013385;28;19906;-76
2023/01/15 15:14:38;;;;;;;;;;;7.30;99.90;;;;;;5044138;28;20063;-79
2023/01/15 15:17:06;;;;;;;;;;;7.00;99.90;;;;;;5046163;28;19904;-77
2023/01/15 15:19:37;;;;;;;;;;;6.70;99.90;;;;;;5048060;28;19909;-77
2023/01/15 15:22:05;;;;;;;;;;;6.30;99.90;;;;;;5046593;28;19940;-76
2023/01/15 15:24:33;;;;;;;;;;;7.60;99.90;;;;;;5040253;28;19909;-76
2023/01/15 15:27:30;;;;;;;;;;;5.90;99.90;;;;;;5023621;28;19908;-77
2023/01/15 15:30:03;;;;;;;;;;;5.90;99.90;;;;;;4961883;28;19922;-76
2023/01/15 15:32:28;;;;;;;;;;;5.60;99.90;;;;;;4960753;28;19981;-76